createdAt,value
2022-12-20T00:01:25.234Z,46.60
2022-12-20T00:04:27.544Z,39.03
2022-12-20T00:07:29.403Z,39.60
2022-12-20T00:10:31.744Z,39.80
2022-12-20T00:13:34.049Z,39.40
2022-12-20T00:16:37.259Z,41.63
2022-12-20T00:19:39.164Z,41.57
2022-12-20T00:22:41.512Z,40.27
2022-12-20T00:25:43.387Z,39.70
2022-12-20T00:28:46.227Z,45.70
2022-12-20T00:31:48.220Z,39.50
2022-12-20T00:34:50.466Z,37.73
2022-12-20T00:37:52.397Z,44.47
2022-12-20T00:41:09.961Z,38.70
2022-12-20T00:44:11.975Z,35.57
2022-12-20T00:47:14.869Z,42.93
2022-12-20T00:50:16.928Z,39.00
2022-12-20T00:53:26.047Z,41.30
2022-12-20T00:56:28.432Z,41.83
2022-12-20T00:59:30.657Z,43.50
2022-12-20T01:02:32.760Z,43.57
2022-12-20T01:05:35.619Z,45.63
2022-12-20T01:08:37.731Z,38.77
2022-12-20T01:11:40.228Z,37.63
2022-12-20T01:14:42.195Z,41.33
2022-12-20T01:17:44.681Z,44.17
2022-12-20T01:20:46.542Z,46.47
2022-12-20T01:23:48.853Z,47.43
2022-12-20T01:26:50.775Z,41.60
2022-12-20T01:29:52.974Z,38.27
2022-12-20T01:32:54.846Z,41.23
2022-12-20T01:35:58.207Z,39.07
2022-12-20T01:39:13.263Z,38.83
2022-12-20T01:42:16.147Z,32.63
2022-12-20T01:45:28.253Z,33.13
2022-12-20T01:48:30.574Z,38.73
2022-12-20T01:51:35.923Z,37.03
2022-12-20T01:54:46.582Z,31.03
2022-12-20T01:57:55.369Z,34.63
2022-12-20T02:00:57.614Z,32.93
2022-12-20T02:03:59.533Z,36.30
2022-12-20T02:07:03.452Z,35.20
2022-12-20T02:10:07.292Z,37.03
2022-12-20T02:13:24.332Z,33.77
2022-12-20T02:16:29.708Z,37.13
2022-12-20T02:19:43.559Z,31.53
2022-12-20T02:23:19.109Z,38.97
2022-12-20T02:26:36.268Z,35.83
2022-12-20T02:30:08.224Z,38.10
2022-12-20T02:33:12.991Z,36.37
2022-12-20T02:36:18.537Z,35.03
2022-12-20T02:39:23.176Z,30.13
2022-12-20T02:42:26.886Z,32.03
2022-12-20T02:45:34.706Z,34.40
2022-12-20T02:48:38.533Z,39.67
2022-12-20T02:51:44.106Z,37.13
2022-12-20T02:54:46.395Z,33.17
2022-12-20T02:58:15.733Z,31.27
2022-12-20T03:01:23.427Z,28.83
2022-12-20T03:04:29.529Z,31.03
2022-12-20T03:07:34.198Z,31.30
2022-12-20T03:10:36.474Z,30.60
2022-12-20T03:13:38.431Z,31.47
2022-12-20T03:16:40.607Z,34.37
2022-12-20T03:19:42.498Z,35.37
2022-12-20T03:22:44.804Z,30.87
2022-12-20T03:25:46.687Z,36.10
2022-12-20T03:28:48.894Z,33.63
2022-12-20T03:31:52.131Z,31.53
2022-12-20T03:34:54.323Z,32.20
2022-12-20T03:37:56.592Z,32.30
2022-12-20T03:40:58.732Z,30.80
2022-12-20T03:44:00.724Z,32.50
2022-12-20T03:47:02.975Z,28.33
2022-12-20T03:50:06.589Z,30.93
2022-12-20T03:53:08.881Z,37.93
2022-12-20T03:56:10.955Z,31.00
2022-12-20T03:59:13.155Z,32.60
2022-12-20T04:02:15.325Z,33.40
2022-12-20T04:05:17.919Z,38.07
2022-12-20T04:08:20.068Z,32.97
2022-12-20T04:11:22.504Z,35.33
2022-12-20T04:14:24.372Z,34.03
2022-12-20T04:17:26.538Z,33.57
2022-12-20T04:20:28.415Z,34.83
2022-12-20T04:23:30.965Z,36.30
2022-12-20T04:26:33.127Z,33.10
2022-12-20T04:29:35.374Z,38.17
2022-12-20T04:32:38.803Z,34.43
2022-12-20T04:35:41.034Z,35.10
2022-12-20T04:38:42.960Z,36.87
2022-12-20T04:41:45.191Z,32.23
2022-12-20T04:44:47.250Z,38.57
2022-12-20T04:47:49.444Z,37.83
2022-12-20T04:50:52.038Z,50.23
2022-12-20T04:53:54.735Z,40.40
2022-12-20T04:56:56.637Z,34.03
2022-12-20T04:59:58.762Z,31.03
2022-12-20T05:03:01.041Z,31.80
2022-12-20T05:06:04.419Z,30.27
2022-12-20T05:09:06.356Z,35.47
2022-12-20T05:12:08.563Z,31.33
2022-12-20T05:15:12.007Z,34.13
2022-12-20T05:18:14.147Z,35.30
2022-12-20T05:21:34.616Z,31.60
2022-12-20T05:24:56.752Z,33.80
2022-12-20T05:27:58.970Z,32.10
2022-12-20T05:31:02.009Z,36.20
2022-12-20T05:34:03.958Z,31.87
2022-12-20T05:37:06.867Z,31.83
2022-12-20T05:40:09.667Z,30.37
2022-12-20T05:43:11.860Z,31.83
2022-12-20T05:46:13.942Z,35.40
2022-12-20T05:49:16.291Z,36.63
2022-12-20T05:52:18.293Z,32.63
2022-12-20T05:55:20.531Z,32.00
2022-12-20T05:58:22.571Z,30.63
2022-12-20T06:01:25.106Z,34.77
2022-12-20T06:04:27.373Z,32.53
2022-12-20T06:07:29.735Z,34.47
2022-12-20T06:10:32.484Z,37.87
2022-12-20T06:13:34.914Z,37.50
2022-12-20T06:16:37.074Z,35.93
2022-12-20T06:19:41.549Z,31.23
2022-12-20T06:22:43.575Z,34.53
2022-12-20T06:25:46.248Z,33.13
2022-12-20T06:28:52.370Z,38.00
2022-12-20T06:31:54.752Z,36.53
2022-12-20T06:34:56.710Z,34.43
2022-12-20T06:37:58.895Z,34.10
2022-12-20T06:41:00.893Z,29.83
2022-12-20T06:44:03.841Z,33.17
2022-12-20T06:47:05.746Z,33.43
2022-12-20T06:50:08.777Z,33.73
2022-12-20T06:53:10.680Z,33.63
2022-12-20T06:56:12.997Z,32.83
2022-12-20T06:59:15.379Z,40.87
2022-12-20T07:02:17.840Z,42.73
2022-12-20T07:05:19.912Z,41.80
2022-12-20T07:08:23.237Z,36.87
2022-12-20T07:11:25.217Z,32.13
2022-12-20T07:14:28.430Z,35.33
2022-12-20T07:17:30.337Z,36.23
2022-12-20T07:20:33.725Z,34.17
2022-12-20T07:23:35.915Z,33.87
2022-12-20T07:26:39.362Z,32.27
2022-12-20T07:29:42.108Z,32.90
2022-12-20T07:32:44.466Z,31.93
2022-12-20T07:35:50.943Z,40.40
2022-12-20T07:38:56.303Z,42.90
2022-12-20T07:41:58.447Z,41.63
2022-12-20T07:45:01.088Z,40.87
2022-12-20T07:48:11.150Z,39.23
2022-12-20T07:51:21.719Z,36.97
2022-12-20T07:54:31.166Z,34.67
2022-12-20T07:57:47.881Z,34.90
2022-12-20T08:00:50.401Z,42.73
2022-12-20T08:03:55.773Z,37.50
2022-12-20T08:06:59.896Z,42.70
2022-12-20T08:10:02.432Z,37.00
2022-12-20T08:13:06.237Z,38.90
2022-12-20T08:16:08.531Z,39.53
2022-12-20T08:19:10.813Z,42.23
2022-12-20T08:22:12.992Z,42.23
2022-12-20T08:25:14.972Z,39.47
2022-12-20T08:28:17.205Z,38.53
2022-12-20T08:31:19.239Z,41.73
2022-12-20T08:34:21.487Z,47.00
2022-12-20T08:37:23.410Z,55.50
2022-12-20T08:40:25.719Z,61.53
2022-12-20T08:43:27.890Z,114.47
2022-12-20T08:46:30.264Z,54.10
2022-12-20T08:49:32.511Z,48.80
2022-12-20T08:52:34.726Z,47.97
2022-12-20T08:55:36.636Z,41.03
2022-12-20T08:58:40.267Z,38.27
2022-12-20T09:01:42.349Z,36.43
2022-12-20T09:04:44.683Z,48.43
2022-12-20T09:07:46.825Z,49.17
2022-12-20T09:10:49.120Z,46.53
2022-12-20T09:13:54.653Z,56.67
2022-12-20T09:16:56.841Z,49.47
2022-12-20T09:19:58.782Z,46.60
2022-12-20T09:23:01.274Z,47.97
2022-12-20T09:26:11.115Z,46.93
2022-12-20T09:29:13.388Z,45.13
2022-12-20T09:32:15.504Z,48.93
2022-12-20T09:35:22.831Z,60.13
2022-12-20T09:38:26.396Z,55.90
2022-12-20T09:41:38.578Z,55.73
2022-12-20T09:44:42.356Z,42.10
2022-12-20T09:47:44.625Z,41.67
2022-12-20T09:51:15.654Z,47.13
2022-12-20T09:54:37.860Z,61.50
2022-12-20T09:57:54.562Z,38.47
2022-12-20T10:00:58.111Z,36.53
2022-12-20T10:04:07.072Z,40.13
2022-12-20T10:07:54.990Z,32.60
2022-12-20T10:11:10.052Z,33.97
2022-12-20T10:14:30.816Z,50.23
2022-12-20T10:18:34.421Z,42.37
2022-12-20T10:21:55.519Z,169.80
2022-12-20T10:25:16.238Z,42.37
2022-12-20T10:28:31.344Z,44.53
2022-12-20T10:31:35.077Z,45.27
2022-12-20T10:34:41.093Z,42.03
2022-12-20T10:38:08.336Z,43.63
2022-12-20T10:41:22.748Z,62.13
2022-12-20T10:44:27.194Z,69.53
2022-12-20T10:47:41.810Z,50.47
2022-12-20T10:50:43.956Z,44.83
2022-12-20T10:53:57.849Z,47.07
2022-12-20T10:57:02.677Z,46.03
2022-12-20T11:00:09.049Z,40.77
2022-12-20T11:03:13.377Z,47.30
2022-12-20T11:06:17.864Z,39.83
2022-12-20T11:09:24.533Z,42.17
2022-12-20T11:12:26.992Z,47.43
2022-12-20T11:15:34.705Z,43.57
2022-12-20T11:19:00.603Z,56.37
2022-12-20T11:22:11.937Z,53.50
2022-12-20T11:25:41.890Z,43.27
2022-12-20T11:28:57.529Z,48.30
2022-12-20T11:32:27.904Z,47.50
2022-12-20T11:35:55.028Z,52.80
2022-12-20T11:39:27.795Z,47.70
2022-12-20T11:42:58.753Z,51.77
2022-12-20T11:46:33.516Z,51.13
2022-12-20T11:49:38.713Z,52.50
2022-12-20T11:53:00.232Z,52.87
2022-12-20T11:56:12.446Z,59.47
2022-12-20T11:59:42.863Z,48.87
2022-12-20T12:02:57.984Z,58.43
2022-12-20T12:06:17.989Z,61.37
2022-12-20T12:09:42.324Z,57.23
2022-12-20T12:12:47.792Z,47.17
2022-12-20T12:16:02.806Z,42.70
2022-12-20T12:19:10.476Z,46.73
2022-12-20T12:22:20.183Z,45.17
2022-12-20T12:25:22.678Z,45.43
2022-12-20T12:28:24.829Z,49.73
2022-12-20T12:31:34.718Z,49.10
2022-12-20T12:34:57.319Z,44.23
2022-12-20T12:38:11.376Z,45.13
2022-12-20T12:41:27.249Z,53.33
2022-12-20T12:44:43.244Z,48.80
2022-12-20T12:48:01.059Z,43.57
2022-12-20T12:51:04.599Z,45.83
2022-12-20T12:54:09.396Z,47.83
2022-12-20T12:57:15.920Z,47.93
2022-12-20T13:00:51.954Z,48.83
2022-12-20T13:03:54.316Z,47.50
2022-12-20T13:07:27.569Z,47.70
2022-12-20T13:10:31.415Z,52.80
2022-12-20T13:13:33.677Z,53.93
2022-12-20T13:17:10.274Z,48.77
2022-12-20T13:19:59.788Z,56.07
2022-12-20T13:23:08.068Z,50.33
2022-12-20T13:26:48.138Z,53.63
2022-12-20T13:30:11.989Z,53.50
2022-12-20T13:33:23.460Z,53.37
2022-12-20T13:36:37.468Z,54.80
2022-12-20T13:39:39.998Z,55.33
2022-12-20T13:42:43.472Z,55.87
2022-12-20T13:45:56.011Z,52.57
2022-12-20T13:49:03.838Z,56.20
2022-12-20T13:52:11.805Z,50.77
2022-12-20T13:55:39.122Z,54.40
2022-12-20T13:58:43.600Z,58.03
2022-12-20T14:01:54.525Z,58.70
2022-12-20T14:05:19.549Z,57.23
2022-12-20T14:08:24.650Z,48.00
2022-12-20T14:11:27.601Z,53.27
2022-12-20T14:14:29.856Z,53.23
2022-12-20T14:17:33.441Z,53.83
2022-12-20T14:20:39.873Z,56.43
2022-12-20T14:23:45.572Z,63.73
2022-12-20T14:26:51.523Z,54.73
2022-12-20T14:29:53.517Z,57.87
2022-12-20T14:32:56.961Z,64.43
2022-12-20T14:36:16.841Z,61.70
2022-12-20T14:39:31.449Z,62.13
2022-12-20T14:42:36.235Z,65.33
2022-12-20T14:45:38.670Z,63.50
2022-12-20T14:48:40.774Z,55.37
2022-12-20T14:51:43.373Z,78.50
2022-12-20T14:55:07.782Z,54.03
2022-12-20T14:58:37.003Z,53.87
2022-12-20T15:01:43.890Z,51.53
2022-12-20T15:04:46.930Z,58.23
2022-12-20T15:07:49.344Z,51.13
2022-12-20T15:11:10.427Z,53.93
2022-12-20T15:14:37.297Z,56.73
2022-12-20T15:17:39.734Z,54.27
2022-12-20T15:20:47.109Z,59.10
2022-12-20T15:23:52.086Z,64.47
2022-12-20T15:26:54.483Z,61.00
2022-12-20T15:29:59.096Z,61.40
2022-12-20T15:33:01.137Z,57.07
2022-12-20T15:36:07.302Z,57.43
2022-12-20T15:39:13.266Z,56.23
2022-12-20T15:42:18.199Z,64.53
2022-12-20T15:45:20.797Z,86.33
2022-12-20T15:48:23.921Z,61.17
2022-12-20T15:51:34.771Z,56.70
2022-12-20T15:54:37.524Z,61.33
2022-12-20T15:57:39.658Z,64.97
2022-12-20T16:00:42.474Z,69.63
2022-12-20T16:03:44.854Z,72.10
2022-12-20T16:06:49.252Z,58.37
2022-12-20T16:09:51.606Z,71.50
2022-12-20T16:12:55.236Z,68.70
2022-12-20T16:15:57.351Z,69.40
2022-12-20T16:19:01.103Z,73.57
2022-12-20T16:22:03.782Z,81.13
2022-12-20T16:25:06.505Z,64.63
2022-12-20T16:28:08.529Z,62.97
2022-12-20T16:31:21.636Z,72.97
2022-12-20T16:34:23.743Z,80.30
2022-12-20T16:37:25.955Z,84.37
2022-12-20T16:40:31.692Z,74.70
2022-12-20T16:43:38.659Z,71.37
2022-12-20T16:46:41.604Z,58.07
2022-12-20T16:49:51.821Z,60.87
2022-12-20T16:52:54.669Z,62.23
2022-12-20T16:55:56.925Z,67.27
2022-12-20T16:59:18.636Z,70.60
2022-12-20T17:02:27.479Z,60.53
2022-12-20T17:05:32.567Z,57.27
2022-12-20T17:11:54.706Z,55.23
2022-12-20T17:14:57.024Z,56.63
2022-12-20T17:17:59.027Z,60.27
2022-12-20T17:21:03.211Z,61.10
2022-12-20T17:24:06.639Z,55.60
2022-12-20T17:27:10.712Z,56.70
2022-12-20T17:30:13.090Z,54.43
2022-12-20T17:33:16.425Z,58.43
2022-12-20T17:36:18.673Z,60.53
2022-12-20T17:39:21.957Z,67.43
2022-12-20T17:42:30.629Z,60.27
2022-12-20T17:45:36.281Z,55.90
2022-12-20T17:48:43.727Z,53.97
2022-12-20T17:51:46.932Z,55.47
2022-12-20T17:54:49.027Z,52.57
2022-12-20T17:57:52.966Z,61.93
2022-12-20T18:00:55.163Z,57.97
2022-12-20T18:04:04.867Z,57.20
2022-12-20T18:07:08.346Z,54.97
2022-12-20T18:10:10.891Z,54.63
2022-12-20T18:13:12.858Z,70.87
2022-12-20T18:16:17.790Z,50.27
2022-12-20T18:19:20.618Z,56.20
2022-12-20T18:22:23.161Z,53.07
2022-12-20T18:25:25.287Z,55.23
2022-12-20T18:28:27.557Z,58.33
2022-12-20T18:31:32.578Z,51.93
2022-12-20T18:34:34.974Z,51.10
2022-12-20T18:37:37.319Z,59.03
2022-12-20T18:40:45.033Z,73.10
2022-12-20T18:43:47.081Z,68.10
2022-12-20T18:46:49.574Z,75.70
2022-12-20T18:49:51.621Z,76.00
2022-12-20T18:52:59.423Z,66.23
2022-12-20T18:56:05.206Z,66.80
2022-12-20T18:59:11.867Z,66.47
2022-12-20T19:02:15.044Z,61.30
2022-12-20T19:05:17.485Z,61.73
2022-12-20T19:08:19.679Z,62.50
2022-12-20T19:11:25.600Z,62.73
2022-12-20T19:14:27.933Z,64.17
2022-12-20T19:17:30.527Z,50.10
2022-12-20T19:20:35.986Z,53.63
2022-12-20T19:23:40.080Z,75.50
2022-12-20T19:26:42.200Z,51.70
2022-12-20T19:29:44.579Z,47.70
2022-12-20T19:32:46.962Z,48.90
2022-12-20T19:35:57.323Z,53.90
2022-12-20T19:39:01.140Z,51.53
2022-12-20T19:42:24.080Z,64.47
2022-12-20T19:45:26.387Z,47.80
2022-12-20T19:48:28.876Z,52.77
2022-12-20T19:51:32.710Z,47.37
2022-12-20T19:54:35.552Z,46.03
2022-12-20T19:57:38.195Z,52.00
2022-12-20T20:00:40.415Z,49.20
2022-12-20T20:03:42.660Z,51.50
2022-12-20T20:06:45.024Z,50.17
2022-12-20T20:09:47.092Z,40.07
2022-12-20T20:12:49.993Z,44.53
2022-12-20T20:16:04.570Z,45.53
2022-12-20T20:19:07.573Z,46.30
2022-12-20T20:22:10.778Z,56.80
2022-12-20T20:25:13.085Z,66.83
2022-12-20T20:28:15.354Z,53.83
2022-12-20T20:31:19.238Z,50.97
2022-12-20T20:34:21.420Z,53.77
2022-12-20T20:37:23.769Z,52.47
2022-12-20T20:40:26.264Z,54.30
2022-12-20T20:43:29.821Z,55.13
2022-12-20T20:46:32.170Z,49.67
2022-12-20T20:49:34.454Z,50.90
2022-12-20T20:52:36.583Z,50.87
2022-12-20T20:55:39.862Z,50.47
2022-12-20T20:58:42.475Z,52.50
2022-12-20T21:01:45.141Z,48.30
2022-12-20T21:05:16.649Z,50.47
2022-12-20T21:08:10.156Z,50.80
2022-12-20T21:11:12.943Z,50.13
2022-12-20T21:14:16.789Z,48.43
2022-12-20T21:17:19.671Z,50.40
2022-12-20T21:20:25.949Z,53.87
2022-12-20T21:23:28.600Z,56.17
2022-12-20T21:26:31.044Z,53.87
2022-12-20T21:29:33.200Z,52.27
2022-12-20T21:32:35.481Z,55.80
2022-12-20T21:35:37.523Z,57.90
2022-12-20T21:38:40.706Z,55.93
2022-12-20T21:41:43.008Z,55.53
2022-12-20T21:44:45.312Z,52.90
2022-12-20T21:47:47.319Z,54.57
2022-12-20T21:51:10.991Z,52.37
2022-12-20T21:54:13.227Z,52.97
2022-12-20T21:57:15.501Z,58.63
2022-12-20T22:00:19.809Z,58.73
2022-12-20T22:03:23.454Z,58.07
2022-12-20T22:06:26.161Z,55.93
2022-12-20T22:09:28.504Z,62.37
2022-12-20T22:12:30.739Z,53.13
2022-12-20T22:15:33.344Z,52.27
2022-12-20T22:18:36.135Z,56.83
2022-12-20T22:21:38.426Z,58.10
2022-12-20T22:24:40.571Z,53.17
2022-12-20T22:27:42.861Z,55.83
2022-12-20T22:30:45.098Z,55.33
2022-12-20T22:33:47.514Z,53.97
2022-12-20T22:36:49.586Z,59.33
2022-12-20T22:39:51.818Z,59.77
2022-12-20T22:42:55.016Z,68.47
2022-12-20T22:46:01.714Z,81.37
2022-12-20T22:49:04.055Z,60.40
2022-12-20T22:52:07.955Z,60.03
2022-12-20T22:55:10.295Z,53.30
2022-12-20T22:58:12.593Z,58.67
2022-12-20T23:01:15.905Z,53.53
2022-12-20T23:04:18.199Z,54.07
2022-12-20T23:07:21.316Z,54.90
2022-12-20T23:10:42.300Z,50.47
2022-12-20T23:14:03.415Z,56.70
2022-12-20T23:17:07.524Z,61.50
2022-12-20T23:20:28.881Z,56.70
2022-12-20T23:23:32.306Z,56.27
2022-12-20T23:26:36.095Z,62.40
2022-12-20T23:29:38.381Z,71.23
2022-12-20T23:32:44.341Z,68.30
2022-12-20T23:35:56.672Z,58.87
2022-12-20T23:38:58.799Z,58.57
2022-12-20T23:42:01.333Z,49.43
2022-12-20T23:45:03.710Z,56.67
2022-12-20T23:48:06.496Z,51.17
2022-12-20T23:51:09.092Z,58.17
2022-12-20T23:54:11.485Z,56.67
2022-12-20T23:57:14.022Z,61.80
